Time;durP1;ratioP1;P1;durP2;ratioP2;P2;SDS_P1;SDS_P2;PMS_P1;PMS_P2;Temp;Humidity;BMP_temperature;BMP_pressure;BME280_temperature;BME280_humidity;BME280_pressure;Samples;Min_cycle;Max_cycle;Signal;HPM_P1;HPM_P2
2024/03/21 00:00:21;;;;;;;6.10;4.27;;;11.50;99.90;;;;;;6214881;23;20146;-74
2024/03/21 00:02:47;;;;;;;5.63;4.97;;;11.40;99.90;;;;;;6213958;23;20372;-73
2024/03/21 00:05:16;;;;;;;6.07;4.10;;;11.40;99.90;;;;;;6213917;23;20385;-72
2024/03/21 00:07:46;;;;;;;5.07;3.60;;;11.30;99.90;;;;;;6227773;23;20454;-77
2024/03/21 00:10:36;;;;;;;5.13;3.90;;;11.20;99.90;;;;;;6238962;23;20373;-77
2024/03/21 00:13:02;;;;;;;4.97;4.17;;;11.10;99.90;;;;;;6235750;22;20398;-72
2024/03/21 00:15:28;;;;;;;4.40;3.43;;;11.10;99.90;;;;;;6208945;23;20449;-75
2024/03/21 00:17:55;;;;;;;5.70;4.10;;;11.00;99.90;;;;;;6207233;23;20406;-74
2024/03/21 00:20:20;;;;;;;5.33;3.30;;;11.00;99.90;;;;;;6227257;23;20139;-74
2024/03/21 00:22:46;;;;;;;4.50;3.53;;;11.00;99.90;;;;;;6196854;23;20455;-72
2024/03/21 00:25:16;;;;;;;3.63;3.00;;;11.00;99.90;;;;;;6172065;23;20160;-74
2024/03/21 00:27:42;;;;;;;4.57;3.53;;;10.90;99.90;;;;;;6173222;23;20202;-74
2024/03/21 00:30:09;;;;;;;6.37;4.60;;;10.90;99.90;;;;;;6171434;23;20736;-73
2024/03/21 00:32:35;;;;;;;8.23;7.03;;;10.80;99.90;;;;;;6148210;23;20387;-74
2024/03/21 00:35:04;;;;;;;9.50;7.03;;;10.80;99.90;;;;;;6146725;23;20395;-75
2024/03/21 00:37:33;;;;;;;7.67;6.30;;;10.80;99.90;;;;;;6174906;23;20412;-73
2024/03/21 00:39:59;;;;;;;7.60;5.30;;;10.90;99.90;;;;;;6147267;23;20379;-73
2024/03/21 00:42:25;;;;;;;7.10;5.00;;;10.80;99.90;;;;;;6148941;23;20550;-73
2024/03/21 00:44:53;;;;;;;6.23;4.63;;;10.80;99.90;;;;;;6147984;23;20386;-72
2024/03/21 00:47:19;;;;;;;5.10;4.60;;;10.80;99.90;;;;;;6147920;23;20400;-74
2024/03/21 00:49:45;;;;;;;5.97;5.00;;;10.70;99.90;;;;;;6146913;23;20367;-72
2024/03/21 00:52:10;;;;;;;6.30;4.37;;;10.70;99.90;;;;;;6171090;23;20500;-73
2024/03/21 00:54:37;;;;;;;7.37;4.40;;;10.70;99.90;;;;;;6147627;23;20151;-74
2024/03/21 00:57:02;;;;;;;6.83;5.10;;;10.70;99.90;;;;;;6146007;23;20215;-71
2024/03/21 00:59:29;;;;;;;8.00;5.57;;;10.60;99.90;;;;;;6154109;23;20380;-72
2024/03/21 01:01:55;;;;;;;7.80;6.07;;;10.60;99.90;;;;;;6177683;23;20405;-74
2024/03/21 01:04:20;;;;;;;8.17;5.47;;;10.50;99.90;;;;;;6153191;23;20201;-73
2024/03/21 01:06:46;;;;;;;6.17;5.30;;;10.50;99.90;;;;;;6226595;23;20461;-73
2024/03/21 01:09:12;;;;;;;7.63;6.13;;;10.50;99.90;;;;;;6232006;23;20438;-73
2024/03/21 01:11:39;;;;;;;10.30;6.53;;;10.40;99.90;;;;;;6227277;23;20520;-73
2024/03/21 01:14:06;;;;;;;9.50;5.90;;;10.50;99.90;;;;;;6176794;23;20174;-75
2024/03/21 01:16:33;;;;;;;10.17;7.30;;;10.50;99.90;;;;;;6227251;23;20456;-72
2024/03/21 01:18:59;;;;;;;7.47;5.93;;;10.60;99.90;;;;;;6176492;23;20390;-72
2024/03/21 01:21:26;;;;;;;7.47;6.53;;;10.60;99.90;;;;;;6204206;23;20360;-74
2024/03/21 01:23:53;;;;;;;8.50;5.43;;;10.60;99.90;;;;;;6225940;23;20381;-73
2024/03/21 01:26:19;;;;;;;7.87;5.30;;;10.60;99.90;;;;;;6227038;23;20428;-73
2024/03/21 01:28:45;;;;;;;8.10;5.97;;;10.60;99.90;;;;;;6226697;23;20362;-73
2024/03/21 01:31:20;;;;;;;6.67;5.33;;;10.60;99.90;;;;;;6227262;23;20443;-73
2024/03/21 01:33:47;;;;;;;6.53;4.77;;;10.60;99.90;;;;;;6202396;23;20366;-71
2024/03/21 01:36:13;;;;;;;7.07;4.67;;;10.60;99.90;;;;;;6226778;23;20465;-72
2024/03/21 01:38:44;;;;;;;7.90;5.10;;;10.60;99.90;;;;;;6208663;23;20417;-75
2024/03/21 01:41:12;;;;;;;7.50;5.30;;;10.60;99.90;;;;;;6234516;23;20206;-73
2024/03/21 01:43:40;;;;;;;7.83;5.17;;;10.50;99.90;;;;;;6211994;23;20393;-74
2024/03/21 01:48:54;;;;;;;6.20;5.33;;;10.50;99.90;;;;;;6212207;23;20401;-77
2024/03/21 01:51:24;;;;;;;6.47;4.70;;;10.40;99.90;;;;;;6181422;23;20365;-74
2024/03/21 01:53:52;;;;;;;6.40;4.93;;;10.40;99.90;;;;;;6182576;23;20369;-76
2024/03/21 01:56:19;;;;;;;8.60;7.27;;;10.40;99.90;;;;;;6151378;23;20426;-72
2024/03/21 01:58:45;;;;;;;8.13;6.93;;;10.40;99.90;;;;;;6123546;23;20371;-75
2024/03/21 02:01:28;;;;;;;8.50;6.67;;;10.40;99.90;;;;;;6117921;23;20367;-73
2024/03/21 02:03:57;;;;;;;9.10;7.27;;;10.50;99.90;;;;;;6157459;23;20143;-74
2024/03/21 02:06:24;;;;;;;7.03;6.23;;;10.50;99.90;;;;;;6156797;23;20452;-73
2024/03/21 02:08:52;;;;;;;8.70;7.80;;;10.60;99.90;;;;;;6157361;23;20379;-73
2024/03/21 02:11:19;;;;;;;9.00;6.73;;;10.60;99.90;;;;;;6157323;23;20679;-74
2024/03/21 02:13:46;;;;;;;7.00;6.13;;;10.60;99.90;;;;;;6130533;23;20411;-74
2024/03/21 02:16:12;;;;;;;7.87;5.90;;;10.60;99.90;;;;;;6156528;23;20418;-74
2024/03/21 02:18:38;;;;;;;9.10;6.37;;;10.60;99.90;;;;;;6157579;23;20375;-72
2024/03/21 02:21:06;;;;;;;7.60;6.00;;;10.60;99.90;;;;;;6157238;23;20435;-73
2024/03/21 02:23:33;;;;;;;5.43;4.90;;;10.60;99.90;;;;;;6156636;23;20204;-73
2024/03/21 02:25:59;;;;;;;6.30;5.67;;;10.60;99.90;;;;;;6157013;23;20453;-73
2024/03/21 02:28:27;;;;;;;6.40;4.80;;;10.60;99.90;;;;;;6160096;23;20499;-73
2024/03/21 02:30:55;;;;;;;5.07;4.20;;;10.60;99.90;;;;;;6087082;23;20418;-74
2024/03/21 02:33:20;;;;;;;5.13;4.50;;;10.50;99.90;;;;;;6157194;23;20449;-74
2024/03/21 02:35:46;;;;;;;5.30;4.33;;;10.50;99.90;;;;;;6156372;23;20394;-74
2024/03/21 02:38:11;;;;;;;5.30;4.40;;;10.50;99.90;;;;;;6130956;23;20151;-73
2024/03/21 02:40:37;;;;;;;5.23;4.07;;;10.40;99.90;;;;;;6157087;23;20146;-73
2024/03/21 02:43:03;;;;;;;4.00;3.23;;;10.50;99.90;;;;;;6156684;23;20218;-72
2024/03/21 02:45:29;;;;;;;4.00;3.57;;;10.40;99.90;;;;;;6157102;23;20370;-73
2024/03/21 02:47:55;;;;;;;4.17;3.00;;;10.40;99.90;;;;;;6157365;23;20202;-73
2024/03/21 02:50:20;;;;;;;3.57;2.73;;;10.40;99.90;;;;;;6156616;23;20394;-75
2024/03/21 02:52:46;;;;;;;3.43;3.07;;;10.50;99.90;;;;;;6156855;23;20140;-74
2024/03/21 02:55:11;;;;;;;4.33;3.90;;;10.50;99.90;;;;;;6156364;23;20455;-72
2024/03/21 02:57:37;;;;;;;4.30;3.70;;;10.50;99.90;;;;;;6157198;23;20412;-73
2024/03/21 03:00:03;;;;;;;4.70;3.73;;;10.60;99.90;;;;;;6157092;23;20539;-74
2024/03/21 03:02:28;;;;;;;4.40;3.60;;;10.60;99.90;;;;;;6157313;23;20147;-74
2024/03/21 03:04:54;;;;;;;4.70;3.80;;;10.60;99.90;;;;;;6156024;23;20409;-73
2024/03/21 03:07:20;;;;;;;6.33;4.23;;;10.60;99.90;;;;;;6157717;23;20424;-74
2024/03/21 03:09:45;;;;;;;4.77;3.83;;;10.70;99.90;;;;;;6157199;23;20132;-72
2024/03/21 03:12:11;;;;;;;3.10;2.80;;;10.70;99.90;;;;;;6157508;23;20132;-72
2024/03/21 03:14:36;;;;;;;5.23;4.63;;;10.70;99.90;;;;;;6156862;23;20210;-74
2024/03/21 03:17:02;;;;;;;5.67;4.37;;;10.70;99.90;;;;;;6156614;23;20567;-72
2024/03/21 03:19:28;;;;;;;4.00;3.20;;;10.70;99.90;;;;;;6156948;23;20136;-72
2024/03/21 03:21:54;;;;;;;5.93;4.50;;;10.70;99.90;;;;;;6157865;23;20138;-73
2024/03/21 03:24:19;;;;;;;9.40;8.40;;;10.80;99.90;;;;;;6156618;23;20363;-75
2024/03/21 03:26:45;;;;;;;9.93;7.20;;;10.80;99.90;;;;;;6157925;23;20163;-74
2024/03/21 03:29:10;;;;;;;8.33;7.13;;;10.70;99.90;;;;;;6157361;23;20501;-73
2024/03/21 03:31:36;;;;;;;9.60;6.70;;;10.70;99.90;;;;;;6157318;23;20135;-72
2024/03/21 03:36:46;;;;;;;11.10;6.83;;;10.70;99.90;;;;;;6156746;23;20175;-73
2024/03/21 03:39:12;;;;;;;11.40;8.33;;;10.70;99.90;;;;;;6157419;23;20371;-73
2024/03/21 03:41:37;;;;;;;14.17;11.93;;;10.70;99.90;;;;;;6131934;23;20139;-71
2024/03/21 03:44:04;;;;;;;17.60;12.77;;;10.70;99.90;;;;;;6157386;23;20454;-73
2024/03/21 03:46:29;;;;;;;17.00;12.23;;;10.80;99.90;;;;;;6155953;23;20552;-74
2024/03/21 03:48:55;;;;;;;15.00;11.20;;;10.90;99.90;;;;;;6156719;23;20386;-72
2024/03/21 03:51:20;;;;;;;17.07;13.87;;;11.00;99.90;;;;;;6157257;23;20135;-74
2024/03/21 03:53:46;;;;;;;18.50;13.97;;;11.00;99.90;;;;;;6156557;23;20147;-74
2024/03/21 03:56:11;;;;;;;16.33;13.40;;;11.00;99.90;;;;;;6156299;23;20180;-72
2024/03/21 03:58:37;;;;;;;17.60;14.83;;;11.00;99.90;;;;;;6156809;23;20135;-74
2024/03/21 04:01:03;;;;;;;29.60;19.97;;;11.00;99.90;;;;;;6156978;23;20182;-72
2024/03/21 04:03:29;;;;;;;19.30;16.17;;;11.00;99.90;;;;;;6130775;23;20143;-73
2024/03/21 04:06:02;;;;;;;23.20;17.67;;;11.10;99.90;;;;;;6156323;23;20164;-73
2024/03/21 04:08:28;;;;;;;29.63;22.30;;;11.10;99.90;;;;;;6157016;23;20377;-71
2024/03/21 04:10:58;;;;;;;29.70;21.63;;;11.10;99.90;;;;;;6156479;23;20423;-73
2024/03/21 04:13:24;;;;;;;28.40;19.70;;;11.10;99.90;;;;;;6156061;23;20147;-73
2024/03/21 04:15:56;;;;;;;22.07;19.10;;;11.10;99.90;;;;;;6155834;23;20799;-72
2024/03/21 04:18:23;;;;;;;22.27;19.87;;;11.10;99.90;;;;;;6157579;23;20377;-73
2024/03/21 04:20:50;;;;;;;27.67;23.30;;;11.00;99.90;;;;;;6156522;23;20355;-74
2024/03/21 04:23:16;;;;;;;26.60;21.33;;;10.90;99.90;;;;;;6156706;23;20748;-72
2024/03/21 04:25:41;;;;;;;30.40;24.07;;;10.90;99.90;;;;;;6156734;23;20374;-72
2024/03/21 04:28:07;;;;;;;37.20;27.93;;;10.90;99.90;;;;;;6156776;23;20136;-73
2024/03/21 04:30:33;;;;;;;34.97;27.30;;;10.90;99.90;;;;;;6158465;23;20139;-73
2024/03/21 04:32:59;;;;;;;37.00;27.63;;;10.90;99.90;;;;;;6160792;23;20736;-73
2024/03/21 04:35:26;;;;;;;40.93;29.57;;;10.90;99.90;;;;;;6156136;23;20230;-72
2024/03/21 04:37:51;;;;;;;35.33;27.40;;;10.80;99.90;;;;;;6157743;23;20382;-74
2024/03/21 04:40:17;;;;;;;34.10;27.90;;;10.80;99.90;;;;;;6133142;23;20600;-72
2024/03/21 04:42:43;;;;;;;33.80;26.70;;;10.80;99.90;;;;;;6158851;23;20252;-72
2024/03/21 04:45:08;;;;;;;38.60;27.70;;;10.80;99.90;;;;;;6107313;23;20379;-74
2024/03/21 04:47:34;;;;;;;38.13;28.70;;;10.80;99.90;;;;;;6157847;23;20245;-73
2024/03/21 04:50:00;;;;;;;34.97;29.47;;;10.90;99.90;;;;;;6158481;23;20400;-74
2024/03/21 04:52:27;;;;;;;35.30;29.67;;;10.90;99.90;;;;;;6158696;23;20551;-73
2024/03/21 04:54:52;;;;;;;46.67;33.40;;;11.00;99.90;;;;;;6158386;23;20570;-74
2024/03/21 04:57:18;;;;;;;41.30;33.40;;;11.10;99.90;;;;;;6158761;23;20382;-74
2024/03/21 04:59:44;;;;;;;41.93;30.93;;;11.10;99.90;;;;;;6158732;23;20132;-72
2024/03/21 05:02:10;;;;;;;44.83;33.03;;;11.20;99.90;;;;;;6169832;23;20136;-73
2024/03/21 05:04:36;;;;;;;39.00;29.47;;;11.10;99.90;;;;;;6170665;23;20139;-73
2024/03/21 05:07:03;;;;;;;38.30;30.00;;;11.10;99.90;;;;;;6143550;23;20481;-73
2024/03/21 05:09:29;;;;;;;39.97;30.60;;;11.10;99.90;;;;;;6124817;23;20371;-73
2024/03/21 05:11:54;;;;;;;36.60;27.80;;;11.10;99.90;;;;;;6172595;23;20375;-72
2024/03/21 05:14:20;;;;;;;37.80;27.50;;;11.00;99.90;;;;;;6149391;23;20367;-73
2024/03/21 05:16:46;;;;;;;44.27;31.40;;;10.90;99.90;;;;;;6120567;23;20242;-72
2024/03/21 05:19:11;;;;;;;37.73;27.50;;;10.90;99.90;;;;;;6148873;23;20213;-74
2024/03/21 05:21:38;;;;;;;35.80;27.27;;;10.90;99.90;;;;;;6170312;23;20128;-73
2024/03/21 05:24:04;;;;;;;48.60;34.37;;;10.90;99.90;;;;;;6145752;23;20144;-71
2024/03/21 05:26:31;;;;;;;41.17;29.70;;;11.00;99.90;;;;;;6125484;23;20427;-74
2024/03/21 05:28:57;;;;;;;39.23;30.03;;;11.00;99.90;;;;;;6150709;23;20371;-73
2024/03/21 05:31:27;;;;;;;35.40;26.87;;;11.00;99.90;;;;;;6149103;23;20417;-73
2024/03/21 05:33:53;;;;;;;39.33;28.50;;;11.00;99.90;;;;;;6154512;23;20152;-73
2024/03/21 05:36:21;;;;;;;37.27;29.70;;;11.00;99.90;;;;;;6154849;23;20422;-73
2024/03/21 05:38:47;;;;;;;38.20;28.17;;;11.00;99.90;;;;;;6153592;23;20780;-73
2024/03/21 05:41:14;;;;;;;39.30;30.20;;;10.90;99.90;;;;;;6128058;23;20363;-73
2024/03/21 05:43:41;;;;;;;44.83;29.53;;;10.90;99.90;;;;;;6156545;23;20418;-73
2024/03/21 05:46:08;;;;;;;37.67;28.60;;;10.90;99.90;;;;;;6107337;23;20382;-74
2024/03/21 05:48:35;;;;;;;39.37;29.17;;;10.90;99.90;;;;;;6129194;23;20422;-73
2024/03/21 05:51:01;;;;;;;41.87;32.23;;;10.90;99.90;;;;;;6129468;23;20139;-72
2024/03/21 05:53:28;;;;;;;40.70;30.33;;;10.80;99.90;;;;;;6129388;23;20372;-73
2024/03/21 05:56:19;;;;;;;35.50;25.17;;;10.80;99.90;;;;;;6131700;23;20469;-75
2024/03/21 05:58:45;;;;;;;43.97;30.80;;;10.70;99.90;;;;;;6130680;23;20455;-74
2024/03/21 06:03:42;;;;;;;42.87;32.57;;;10.60;99.90;;;;;;6181942;23;20167;-75
2024/03/21 06:08:45;;;;;;;41.87;32.50;;;10.50;99.90;;;;;;6235449;23;20902;-75
2024/03/21 06:11:11;;;;;;;40.93;30.83;;;10.60;99.90;;;;;;6240515;23;20372;-75
2024/03/21 06:13:37;;;;;;;47.50;34.13;;;10.60;99.90;;;;;;6215608;22;20384;-74
2024/03/21 06:16:08;;;;;;;48.60;31.70;;;10.60;99.90;;;;;;6209709;23;20175;-75
2024/03/21 06:18:33;;;;;;;44.30;31.80;;;10.60;99.90;;;;;;6161624;23;20374;-73
2024/03/21 06:20:59;;;;;;;40.47;28.80;;;10.60;99.90;;;;;;6185189;23;20397;-75
2024/03/21 06:23:33;;;;;;;43.87;33.60;;;10.60;99.90;;;;;;6162872;23;20150;-76
2024/03/21 06:28:48;;;;;;;42.90;28.63;;;10.70;99.90;;;;;;6236772;23;20436;-74
2024/03/21 06:31:19;;;;;;;44.50;31.53;;;10.70;99.90;;;;;;6192029;23;20373;-76
2024/03/21 06:33:46;;;;;;;43.83;31.10;;;10.70;99.90;;;;;;6166898;23;20141;-77
2024/03/21 06:36:13;;;;;;;40.37;28.53;;;10.90;99.90;;;;;;6190599;23;20516;-76
2024/03/21 06:38:38;;;;;;;44.50;30.10;;;11.00;99.90;;;;;;6167493;23;20385;-76
2024/03/21 06:41:05;;;;;;;39.23;28.20;;;11.10;99.90;;;;;;6167239;23;20388;-74
2024/03/21 06:43:38;;;;;;;35.90;25.77;;;11.20;99.90;;;;;;6242554;23;20169;-75
2024/03/21 06:46:04;;;;;;;32.90;23.07;;;11.30;99.90;;;;;;6216119;23;20385;-75
2024/03/21 06:48:30;;;;;;;38.60;24.57;;;11.30;99.90;;;;;;6190874;23;20373;-76
2024/03/21 06:51:08;;;;;;;35.77;26.40;;;11.40;99.90;;;;;;6192044;23;20373;-76
2024/03/21 06:53:35;;;;;;;32.40;23.43;;;11.40;99.90;;;;;;6192707;23;20353;-74
2024/03/21 06:56:02;;;;;;;36.93;26.80;;;11.50;99.90;;;;;;6166419;23;20412;-75
2024/03/21 06:58:30;;;;;;;33.90;24.90;;;11.60;99.90;;;;;;6190339;23;20419;-73
2024/03/21 07:00:55;;;;;;;36.10;25.00;;;11.60;99.90;;;;;;6215153;23;20361;-75
2024/03/21 07:03:25;;;;;;;39.93;25.10;;;11.60;99.90;;;;;;6215786;23;20369;-77
2024/03/21 07:05:52;;;;;;;31.57;22.70;;;11.70;99.90;;;;;;6215908;23;20498;-75
2024/03/21 07:08:17;;;;;;;32.00;23.57;;;11.70;99.90;;;;;;6190732;23;20674;-74
2024/03/21 07:10:45;;;;;;;32.33;23.90;;;11.80;99.90;;;;;;6191366;23;20409;-77
2024/03/21 07:13:12;;;;;;;33.60;24.03;;;11.80;99.90;;;;;;6192196;23;20387;-75
2024/03/21 07:15:42;;;;;;;32.90;22.83;;;11.90;99.90;;;;;;6166746;23;20421;-76
2024/03/21 07:18:12;;;;;;;34.30;24.00;;;12.00;99.90;;;;;;6166486;23;20400;-76
2024/03/21 07:20:56;;;;;;;35.17;22.93;;;12.00;99.90;;;;;;6216351;23;20441;-77
2024/03/21 07:23:37;;;;;;;32.63;24.90;;;12.10;99.90;;;;;;6216689;23;20370;-75
2024/03/21 07:26:06;;;;;;;37.13;22.90;;;12.20;99.90;;;;;;6216804;23;20382;-76
2024/03/21 07:28:36;;;;;;;35.57;24.27;;;12.30;99.90;;;;;;6194839;23;20427;-75
2024/03/21 07:34:03;;;;;;;35.70;23.57;;;12.50;99.90;;;;;;6202654;22;20480;-76
2024/03/21 07:36:31;;;;;;;41.57;26.30;;;12.60;99.90;;;;;;6179133;23;20423;-76
2024/03/21 07:38:58;;;;;;;29.10;23.43;;;12.70;99.90;;;;;;6178585;23;20153;-75
2024/03/21 07:41:25;;;;;;;32.03;24.20;;;12.60;99.90;;;;;;6155257;23;20365;-76
2024/03/21 07:44:03;;;;;;;32.20;26.13;;;12.70;99.90;;;;;;6155859;23;20387;-77
2024/03/21 07:49:17;;;;;;;31.00;23.90;;;12.90;99.90;;;;;;6252171;22;20448;-74
2024/03/21 07:51:44;;;;;;;35.30;24.80;;;12.90;99.90;;;;;;6244881;23;20399;-74
2024/03/21 07:54:11;;;;;;;32.87;25.07;;;12.90;99.90;;;;;;6245310;23;20152;-73
2024/03/21 07:59:27;;;;;;;30.03;24.00;;;12.90;99.90;;;;;;6264745;23;20471;-74
2024/03/21 08:01:55;;;;;;;34.80;24.97;;;13.00;99.90;;;;;;6221025;22;20399;-75
2024/03/21 08:04:21;;;;;;;33.40;24.87;;;12.90;99.90;;;;;;6245221;22;20388;-74
2024/03/21 08:06:53;;;;;;;31.83;26.10;;;13.00;99.90;;;;;;6214034;23;20419;-76
2024/03/21 08:09:23;;;;;;;32.53;24.00;;;12.90;99.90;;;;;;6192203;23;20382;-74
2024/03/21 08:11:51;;;;;;;37.60;26.60;;;12.90;99.90;;;;;;6215156;23;20374;-75
2024/03/21 08:14:20;;;;;;;32.60;25.30;;;12.80;99.90;;;;;;6191832;23;20397;-75
2024/03/21 08:16:47;;;;;;;29.00;24.40;;;12.70;99.90;;;;;;6166539;23;20434;-73
2024/03/21 08:19:15;;;;;;;36.30;25.30;;;12.70;99.90;;;;;;6190682;23;20464;-73
2024/03/21 08:21:41;;;;;;;38.60;27.83;;;12.60;99.90;;;;;;6216001;23;20408;-75
2024/03/21 08:24:07;;;;;;;34.70;26.50;;;12.50;99.90;;;;;;6167084;23;20396;-76
2024/03/21 08:26:33;;;;;;;34.23;26.10;;;12.50;99.90;;;;;;6166167;23;20394;-73
2024/03/21 08:29:01;;;;;;;34.70;27.40;;;12.60;99.90;;;;;;6193321;22;20203;-74
2024/03/21 08:31:27;;;;;;;33.63;24.40;;;12.50;99.90;;;;;;6242077;22;20393;-76
2024/03/21 08:33:55;;;;;;;37.00;28.70;;;12.40;99.90;;;;;;6217866;23;20798;-74
2024/03/21 08:36:25;;;;;;;36.93;26.07;;;12.40;99.90;;;;;;6168482;23;20431;-77
2024/03/21 08:38:55;;;;;;;37.97;27.33;;;12.40;99.90;;;;;;6111160;23;20441;-75
2024/03/21 08:41:21;;;;;;;37.73;28.37;;;12.50;99.90;;;;;;6157245;23;20448;-74
2024/03/21 08:49:31;;;;;;;34.80;24.83;;;12.50;99.90;;;;;;6237691;22;20435;-76
2024/03/21 08:58:39;;;;;;;35.40;24.90;;;12.50;99.90;;;;;;6216982;22;20426;-76
2024/03/21 09:01:05;;;;;;;30.83;25.13;;;12.50;99.90;;;;;;6159718;23;20372;-76
2024/03/21 09:17:50;;;;;;;23.50;17.53;;;12.80;99.90;;;;;;6213330;23;20436;-76
2024/03/21 09:20:18;;;;;;;30.33;18.93;;;12.90;99.90;;;;;;6211930;23;20366;-75
2024/03/21 09:22:45;;;;;;;21.60;17.43;;;13.00;99.90;;;;;;6189012;23;20389;-77
2024/03/21 09:25:20;;;;;;;18.20;15.30;;;13.10;99.90;;;;;;6212513;23;20396;-75
2024/03/21 09:27:54;;;;;;;19.53;15.77;;;13.20;99.90;;;;;;6187498;23;20453;-75
2024/03/21 09:30:21;;;;;;;19.20;15.30;;;13.30;99.90;;;;;;6186721;23;20460;-73
2024/03/21 09:33:05;;;;;;;17.00;14.57;;;13.40;99.90;;;;;;6163575;23;20404;-76
2024/03/21 09:38:10;;;;;;;18.43;13.50;;;13.60;99.90;;;;;;6217173;23;20440;-77
2024/03/21 09:43:13;;;;;;;16.07;14.10;;;13.70;99.90;;;;;;6239259;22;20523;-76
2024/03/21 09:57:32;;;;;;;19.40;13.63;;;14.10;99.90;;;;;;6241346;22;20432;-78
2024/03/21 10:22:22;;;;;;;11.80;9.67;;;14.90;96.40;;;;;;6225995;23;20881;-77
2024/03/21 10:24:55;;;;;;;11.60;10.13;;;14.80;96.50;;;;;;6188888;22;20485;-75
2024/03/21 10:27:41;;;;;;;15.43;12.80;;;14.70;97.00;;;;;;6161847;23;20381;-77
2024/03/21 10:30:33;;;;;;;18.47;13.03;;;14.60;97.40;;;;;;6214047;23;20354;-75
2024/03/21 10:33:12;;;;;;;16.07;12.77;;;14.30;97.80;;;;;;6164266;23;20394;-75
2024/03/21 10:41:26;;;;;;;17.70;13.17;;;14.30;98.30;;;;;;6309976;22;20429;-78
2024/03/21 10:53:24;;;;;;;15.77;13.97;;;14.50;97.60;;;;;;6202107;22;20416;-75
2024/03/21 10:59:05;;;;;;;15.83;11.87;;;14.80;96.10;;;;;;6238784;22;20444;-76
2024/03/21 11:01:37;;;;;;;12.47;10.87;;;14.90;95.90;;;;;;6243121;22;20389;-77
2024/03/21 11:04:12;;;;;;;14.63;12.00;;;14.90;95.00;;;;;;6243828;22;20385;-76
2024/03/21 11:06:46;;;;;;;11.83;9.87;;;14.90;94.40;;;;;;6243180;22;20388;-77
2024/03/21 11:09:33;;;;;;;13.77;9.50;;;15.00;94.00;;;;;;6243714;22;20368;-76
2024/03/21 11:12:45;;;;;;;10.73;9.60;;;15.20;92.90;;;;;;6246583;22;20450;-78
2024/03/21 11:15:16;;;;;;;9.40;8.40;;;15.40;92.30;;;;;;6253061;22;20390;-77
2024/03/21 11:20:32;;;;;;;12.90;8.67;;;15.40;91.30;;;;;;6257338;22;20436;-75
2024/03/21 11:23:07;;;;;;;11.07;8.57;;;15.40;91.00;;;;;;6243720;22;20386;-78
2024/03/21 11:28:36;;;;;;;10.80;7.00;;;15.10;91.00;;;;;;6269501;22;20427;-78
2024/03/21 11:45:19;;;;;;;6.10;5.50;;;15.30;87.50;;;;;;6243502;22;20378;-77
2024/03/21 11:57:46;;;;;;;9.03;8.13;;;15.70;84.40;;;;;;6242376;22;20450;-77
2024/03/21 15:31:23;;;;;;;13.30;10.93;;;14.90;82.80;;;;;;6239144;22;21557;-78
2024/03/21 15:51:29;;;;;;;11.13;9.50;;;14.50;81.10;;;;;;6299284;22;20426;-79
2024/03/21 15:53:55;;;;;;;13.90;11.90;;;14.50;82.00;;;;;;6213302;22;20447;-78
2024/03/21 15:56:23;;;;;;;12.33;9.77;;;14.60;80.90;;;;;;6243173;22;20431;-79
2024/03/21 15:58:52;;;;;;;11.53;8.40;;;14.60;82.10;;;;;;6181822;23;20375;-79
2024/03/21 16:01:48;;;;;;;11.93;10.23;;;14.70;83.00;;;;;;6181489;23;20379;-78
2024/03/21 16:04:17;;;;;;;13.00;10.40;;;14.70;80.80;;;;;;6181053;23;20448;-78
2024/03/21 16:07:11;;;;;;;13.50;10.30;;;14.70;80.90;;;;;;6188212;23;20429;-79
2024/03/21 16:46:15;;;;;;;11.67;9.40;;;13.60;86.80;;;;;;6233461;22;20747;-76
2024/03/21 16:48:51;;;;;;;10.70;9.20;;;13.50;87.40;;;;;;6277852;22;20387;-76
2024/03/21 16:51:18;;;;;;;13.40;11.47;;;13.50;88.10;;;;;;6278189;22;20407;-75
2024/03/21 16:53:45;;;;;;;11.80;10.20;;;13.40;88.70;;;;;;6274321;22;20383;-76
2024/03/21 16:56:11;;;;;;;14.20;11.90;;;13.40;89.10;;;;;;6274740;22;20184;-76
2024/03/21 16:58:39;;;;;;;13.57;11.03;;;13.40;88.90;;;;;;6250716;22;20363;-76
2024/03/21 17:01:05;;;;;;;14.77;10.90;;;13.30;89.20;;;;;;6275197;22;20369;-75
2024/03/21 17:03:33;;;;;;;14.80;12.47;;;13.30;89.60;;;;;;6276283;22;20375;-76
2024/03/21 17:08:50;;;;;;;13.63;10.47;;;13.10;90.30;;;;;;6296123;22;20442;-75
2024/03/21 17:11:16;;;;;;;13.87;10.10;;;13.00;90.60;;;;;;6252019;22;20366;-75
2024/03/21 17:13:42;;;;;;;10.60;9.40;;;13.00;90.80;;;;;;6277450;22;20422;-76
2024/03/21 17:16:08;;;;;;;14.93;12.33;;;12.90;91.00;;;;;;6302151;22;20405;-75
2024/03/21 17:18:34;;;;;;;14.73;11.67;;;12.90;91.40;;;;;;6275371;22;20235;-75
2024/03/21 17:21:00;;;;;;;12.87;11.10;;;12.80;91.90;;;;;;6250597;22;20136;-76
2024/03/21 17:23:28;;;;;;;16.90;11.80;;;12.80;91.90;;;;;;6277317;22;20419;-76
2024/03/21 17:26:15;;;;;;;15.60;12.23;;;12.70;92.10;;;;;;6232166;22;20175;-76
2024/03/21 17:28:42;;;;;;;12.67;9.97;;;12.70;92.40;;;;;;6225626;22;20378;-76
2024/03/21 17:31:08;;;;;;;11.33;8.83;;;12.70;92.50;;;;;;6250014;22;20449;-75
2024/03/21 17:33:35;;;;;;;12.00;10.80;;;12.60;92.60;;;;;;6301750;22;20153;-75
2024/03/21 17:36:03;;;;;;;14.93;13.40;;;12.60;92.90;;;;;;6252176;22;20440;-76
2024/03/21 17:38:35;;;;;;;16.90;13.37;;;12.60;93.20;;;;;;6251815;22;20394;-75
2024/03/21 17:41:07;;;;;;;14.73;13.00;;;12.50;93.30;;;;;;6304586;22;20379;-75
2024/03/21 17:43:34;;;;;;;15.97;12.77;;;12.50;93.50;;;;;;6251956;22;20394;-76
2024/03/21 17:46:21;;;;;;;10.67;9.67;;;12.40;93.80;;;;;;6303572;22;20383;-76
2024/03/21 17:48:48;;;;;;;12.50;11.17;;;12.40;94.10;;;;;;6303647;22;20379;-75
2024/03/21 17:51:16;;;;;;;13.83;11.90;;;12.40;94.50;;;;;;6299407;22;20367;-75
2024/03/21 17:53:42;;;;;;;14.47;10.60;;;12.40;94.60;;;;;;6273200;22;20377;-76
2024/03/21 17:56:08;;;;;;;13.50;10.50;;;12.30;94.80;;;;;;6250565;22;20407;-76
2024/03/21 17:58:34;;;;;;;13.23;11.50;;;12.30;95.20;;;;;;6249904;22;20381;-76
2024/03/21 18:01:03;;;;;;;12.23;10.47;;;12.30;95.50;;;;;;6276894;22;20340;-75
2024/03/21 18:03:32;;;;;;;10.87;9.37;;;12.20;95.70;;;;;;6254463;22;20183;-76
2024/03/21 18:05:58;;;;;;;10.43;9.30;;;12.20;95.90;;;;;;6246098;23;20557;-76
2024/03/21 18:08:27;;;;;;;10.50;9.33;;;12.20;96.20;;;;;;6244453;22;20406;-75
2024/03/21 18:10:53;;;;;;;9.60;8.50;;;12.20;96.60;;;;;;6221732;22;20360;-75
2024/03/21 18:13:23;;;;;;;9.10;7.37;;;12.10;96.90;;;;;;6195081;22;20439;-76
2024/03/21 18:15:49;;;;;;;8.73;7.83;;;12.20;97.30;;;;;;6275029;22;20413;-75
2024/03/21 18:18:16;;;;;;;11.57;8.90;;;12.20;97.70;;;;;;6274743;22;20390;-75
2024/03/21 18:20:43;;;;;;;11.30;9.77;;;12.10;97.90;;;;;;6274668;22;20152;-75
2024/03/21 18:23:14;;;;;;;10.83;9.23;;;12.20;98.20;;;;;;6276325;22;20442;-74
2024/03/21 18:25:42;;;;;;;13.57;12.17;;;12.20;98.90;;;;;;6274790;22;20375;-76
2024/03/21 18:28:15;;;;;;;11.33;9.80;;;12.10;98.90;;;;;;6273085;22;20352;-76
2024/03/21 18:30:41;;;;;;;12.30;10.40;;;12.10;99.50;;;;;;6249511;22;20367;-75
2024/03/21 18:33:08;;;;;;;11.50;10.30;;;12.10;99.40;;;;;;6275207;22;20366;-76
2024/03/21 18:35:35;;;;;;;14.87;11.70;;;12.10;99.60;;;;;;6247628;22;20429;-75
2024/03/21 18:38:01;;;;;;;13.37;10.20;;;12.10;99.90;;;;;;6248529;22;20375;-76
2024/03/21 18:40:27;;;;;;;15.80;13.53;;;12.10;99.90;;;;;;6222484;22;20810;-75
2024/03/21 18:42:53;;;;;;;15.23;12.90;;;12.10;99.90;;;;;;6273872;22;20379;-76
2024/03/21 18:45:19;;;;;;;14.97;11.90;;;12.10;99.90;;;;;;6274059;22;20833;-75
2024/03/21 18:47:45;;;;;;;14.30;11.30;;;12.10;99.90;;;;;;6300307;22;20259;-73
2024/03/21 18:50:11;;;;;;;15.07;11.77;;;12.10;99.90;;;;;;6247308;22;20254;-75
2024/03/21 18:52:37;;;;;;;19.73;12.47;;;12.10;99.90;;;;;;6272183;22;20407;-74
2024/03/21 18:55:23;;;;;;;17.20;14.70;;;12.10;99.90;;;;;;6274004;22;20151;-74
2024/03/21 18:57:49;;;;;;;17.60;12.77;;;12.10;99.90;;;;;;6300019;22;20398;-76
2024/03/21 19:00:16;;;;;;;21.07;17.27;;;12.00;99.90;;;;;;6300867;22;20364;-75
2024/03/21 19:02:42;;;;;;;19.67;14.50;;;12.00;99.90;;;;;;6275178;22;20109;-75
2024/03/21 19:05:08;;;;;;;17.83;15.10;;;12.00;99.90;;;;;;6250874;22;20382;-75
2024/03/21 19:07:34;;;;;;;15.63;12.77;;;11.90;99.90;;;;;;6274948;22;20199;-74
2024/03/21 19:10:03;;;;;;;13.73;12.07;;;11.90;99.90;;;;;;6302819;22;20355;-75
2024/03/21 19:12:35;;;;;;;14.93;11.97;;;11.80;99.90;;;;;;6301045;22;20427;-75
2024/03/21 19:15:11;;;;;;;13.27;11.37;;;11.80;99.90;;;;;;6302847;22;20410;-75
2024/03/21 19:17:38;;;;;;;14.50;12.30;;;11.70;99.90;;;;;;6277297;22;20398;-76
2024/03/21 19:20:05;;;;;;;14.40;12.20;;;11.70;99.90;;;;;;6238348;23;20380;-74
2024/03/21 19:22:31;;;;;;;20.07;15.10;;;11.70;99.90;;;;;;6261403;23;20375;-74